createdAt,value
2023-06-17T00:01:56.030Z,147.11371237458195
2023-06-17T00:12:26.465Z,149.06020066889633
2023-06-17T00:18:46.880Z,148.8628762541806
2023-06-17T00:29:23.563Z,149.01672240802677
2023-06-17T00:41:13.158Z,165.2608695652174
2023-06-17T00:47:34.656Z,172.752508361204
2023-06-17T00:53:55.330Z,172.5351170568562
2023-06-17T01:00:15.955Z,169.24414715719064
2023-06-17T01:06:36.594Z,182.5819397993311
2023-06-17T01:12:56.245Z,189.90301003344482
2023-06-17T01:19:16.037Z,208.44147157190636
2023-06-17T01:25:36.497Z,228.5953177257525
2023-06-17T01:41:10.407Z,214.22073578595317
2023-06-17T01:47:30.920Z,205.67558528428094
2023-06-17T01:55:45.201Z,234.6722408026756
2023-06-17T02:07:45.434Z,233.7257525083612
2023-06-17T02:14:05.386Z,250.28428093645485
2023-06-17T02:20:25.182Z,230.18060200668896
2023-06-17T02:32:20.011Z,226.90635451505017
2023-06-17T02:45:10.733Z,207.1036789297659
2023-06-17T02:51:30.886Z,204.02341137123747
2023-06-17T02:57:51.527Z,210.70903010033445
2023-06-17T03:06:16.613Z,214.10033444816054
2023-06-17T03:12:36.408Z,227.314381270903
2023-06-17T03:18:56.840Z,243.10702341137124
2023-06-17T03:30:31.302Z,256.8595317725752
2023-06-17T03:36:51.467Z,289.18729096989966
2023-06-17T03:43:15.518Z,266.09364548494983
2023-06-17T03:49:38.488Z,254.23411371237458
2023-06-17T03:56:00.515Z,234.8428093645485
2023-06-17T04:02:23.179Z,230.98996655518394
2023-06-17T04:08:46.316Z,235.1705685618729
2023-06-17T04:15:08.700Z,228.26755852842808
2023-06-17T04:22:02.527Z,233.33110367892976
2023-06-17T04:32:52.825Z,226.83946488294313
2023-06-17T04:41:36.451Z,225.38127090301003
2023-06-17T04:47:59.110Z,212.23411371237458
2023-06-17T04:54:21.088Z,224.23745819397993
2023-06-17T05:04:11.728Z,223.76588628762542
2023-06-17T05:10:34.878Z,209.8561872909699
2023-06-17T05:16:57.955Z,210.52508361204013
2023-06-17T05:23:21.369Z,206.07692307692307
2023-06-17T05:34:52.771Z,199.72240802675586
2023-06-17T05:41:18.692Z,191.59197324414717
2023-06-17T05:47:41.523Z,180.67558528428094
2023-06-17T05:58:25.875Z,181.61204013377926
2023-06-17T06:10:29.804Z,171.60535117056855
2023-06-17T06:16:52.681Z,170.9297658862876
2023-06-17T06:23:15.422Z,189.37792642140468
2023-06-17T06:34:56.878Z,200.49498327759198
2023-06-17T06:42:36.669Z,182.58528428093646
2023-06-17T06:48:58.924Z,199.6153846153846
2023-06-17T06:55:22.538Z,192.12709030100334
2023-06-17T07:02:07.839Z,189.82608695652175
2023-06-17T07:15:25.319Z,207.85284280936455
2023-06-17T07:21:47.517Z,212.7826086956522
2023-06-17T07:28:10.261Z,211.91973244147158
2023-06-17T07:34:32.837Z,209.10702341137124
2023-06-17T07:40:54.799Z,212.90635451505017
2023-06-17T07:48:41.064Z,218.22408026755852
2023-06-17T08:01:17.517Z,228.1304347826087
2023-06-17T08:07:39.712Z,226.561872909699
2023-06-17T08:14:31.096Z,219.8227424749164
2023-06-17T08:22:33.420Z,215.0267558528428
2023-06-17T08:28:56.780Z,223.03678929765886
2023-06-17T08:35:20.551Z,272.8361204013378
2023-06-17T08:43:19.190Z,248.0
2023-06-17T08:49:43.870Z,229.61872909698997
2023-06-17T08:56:08.982Z,244.55852842809364
2023-06-17T09:02:33.157Z,243.1571906354515
2023-06-17T09:08:56.670Z,244.03678929765886
2023-06-17T09:15:20.697Z,244.1036789297659
2023-06-17T09:22:21.473Z,243.87625418060202
2023-06-17T09:29:29.716Z,253.36454849498327
2023-06-17T09:40:45.981Z,248.2608695652174
2023-06-17T09:54:50.421Z,251.14046822742475
2023-06-17T10:05:18.865Z,250.93645484949832
2023-06-17T10:15:03.649Z,235.8561872909699
2023-06-17T10:21:29.146Z,236.69230769230768
2023-06-17T10:27:52.988Z,248.65551839464882
2023-06-17T10:34:17.180Z,227.03010033444815
2023-06-17T10:40:40.954Z,227.83612040133778
2023-06-17T10:47:04.585Z,232.48829431438128
2023-06-17T10:53:29.177Z,203.66889632107024
2023-06-17T11:11:41.590Z,200.58528428093646
2023-06-17T11:18:06.282Z,191.47491638795987
2023-06-17T11:26:58.369Z,186.75585284280936
2023-06-17T11:36:54.000Z,157.53846153846155
2023-06-17T11:48:52.576Z,183.41137123745818
2023-06-17T11:55:16.011Z,164.91638795986623
2023-06-17T12:01:40.200Z,153.29096989966555
2023-06-17T12:08:02.781Z,164.91973244147158
2023-06-17T12:19:45.852Z,152.6020066889632
2023-06-17T12:31:10.333Z,142.10033444816054
2023-06-17T12:37:33.220Z,138.1304347826087
2023-06-17T12:43:55.915Z,128.79598662207357
2023-06-17T12:50:18.914Z,116.06688963210702
2023-06-17T12:56:55.605Z,127.91304347826087
2023-06-17T13:03:19.077Z,126.68896321070234
2023-06-17T13:09:42.519Z,110.95986622073579
2023-06-17T13:16:05.517Z,109.03344481605352
2023-06-17T13:22:28.258Z,101.8428093645485
2023-06-17T13:28:51.564Z,106.14046822742475
2023-06-17T13:50:37.680Z,90.75919732441471
2023-06-17T13:57:00.379Z,98.67892976588628
2023-06-17T14:03:23.833Z,101.50836120401338
2023-06-17T14:12:21.808Z,107.19063545150502
2023-06-17T14:18:45.008Z,114.97658862876254
2023-06-17T14:25:07.470Z,115.07692307692308
2023-06-17T14:31:30.571Z,109.48160535117057
2023-06-17T14:37:54.032Z,106.78929765886288
2023-06-17T14:48:26.031Z,110.08026755852843
2023-06-17T14:54:50.336Z,96.4448160535117
2023-06-17T15:04:53.368Z,93.59866220735786
2023-06-17T15:11:17.959Z,92.52173913043478
2023-06-17T15:17:41.427Z,84.94983277591973
2023-06-17T15:24:36.288Z,91.62207357859532
2023-06-17T15:36:35.546Z,101.7324414715719
2023-06-17T15:42:59.668Z,104.39464882943143
2023-06-17T15:59:22.155Z,106.18729096989966
2023-06-17T16:05:45.231Z,91.21404682274247
2023-06-17T16:12:08.540Z,85.94648829431438
2023-06-17T16:20:29.960Z,75.92976588628763
2023-06-17T16:31:36.320Z,69.13377926421404
2023-06-17T16:38:00.671Z,70.1571906354515
2023-06-17T16:44:24.791Z,75.6086956521739
2023-06-17T16:50:49.767Z,70.17391304347827
2023-06-17T16:57:13.018Z,69.37458193979933
2023-06-17T17:03:36.769Z,80.55852842809365
2023-06-17T17:10:00.417Z,87.31438127090301
2023-06-17T17:16:23.660Z,85.65217391304348
2023-06-17T17:28:38.764Z,81.42140468227424
2023-06-17T17:35:01.861Z,96.7123745819398
2023-06-17T17:41:24.899Z,113.98996655518394
2023-06-17T17:59:28.313Z,133.02006688963212
2023-06-17T18:07:01.989Z,132.25752508361205
2023-06-17T18:13:24.435Z,132.4581939799331
2023-06-17T18:19:47.123Z,138.70234113712374
2023-06-17T18:26:09.477Z,140.9665551839465
2023-06-17T18:32:31.372Z,144.20066889632108
2023-06-17T18:38:54.343Z,152.90301003344482
2023-06-17T18:45:17.494Z,143.32441471571906
2023-06-17T18:51:41.219Z,146.5953177257525
2023-06-17T19:04:50.921Z,140.34113712374582
2023-06-17T19:18:38.190Z,143.09698996655518
2023-06-17T19:25:01.070Z,137.85284280936455
2023-06-17T19:31:24.781Z,140.8628762541806
2023-06-17T19:42:38.301Z,121.06020066889631
2023-06-17T19:48:59.055Z,127.90969899665552
2023-06-17T19:55:21.639Z,125.22073578595318
2023-06-17T20:08:30.077Z,144.82608695652175
2023-06-17T20:14:51.003Z,143.8160535117057
2023-06-17T20:27:43.748Z,146.56521739130434
2023-06-17T20:34:04.399Z,144.2809364548495
2023-06-17T20:44:11.553Z,155.06020066889633
2023-06-17T20:50:32.212Z,151.3210702341137
2023-06-17T20:56:52.901Z,155.88628762541805
2023-06-17T21:03:13.973Z,162.71571906354515
2023-06-17T21:09:34.908Z,175.98327759197323
2023-06-17T21:22:07.019Z,174.66889632107024
2023-06-17T21:28:32.392Z,172.46822742474916
2023-06-17T21:38:19.491Z,187.2541806020067
2023-06-17T21:50:51.296Z,188.6789297658863
2023-06-17T21:57:12.733Z,186.3979933110368
2023-06-17T22:07:23.643Z,184.8896321070234
2023-06-17T22:19:38.647Z,190.87290969899666
2023-06-17T22:33:28.719Z,183.27090301003344
2023-06-17T22:44:47.415Z,172.93311036789297
2023-06-17T22:51:08.116Z,180.561872909699
2023-06-17T22:57:28.468Z,173.7257525083612
2023-06-17T23:03:49.300Z,168.91638795986623
2023-06-17T23:10:56.769Z,176.10702341137124
2023-06-17T23:17:17.525Z,190.2742474916388
2023-06-17T23:23:37.981Z,175.4715719063545
2023-06-17T23:42:29.146Z,184.9297658862876
2023-06-17T23:48:50.423Z,196.5418060200669
2023-06-17T23:55:11.931Z,196.1571906354515
